Time;durP1;ratioP1;P1;durP2;ratioP2;P2;SDS_P1;SDS_P2;PMS_P1;PMS_P2;Temp;Humidity;BMP_temperature;BMP_pressure;BME280_temperature;BME280_humidity;BME280_pressure;Samples;Min_cycle;Max_cycle;Signal;HPM_P1;HPM_P2
2023/10/17 00:01:18;;;;;;;29.07;27.77;;;;;;;-141.02;77.12;43861.25;5074462;28;20723;-67
2023/10/17 00:03:47;;;;;;;29.30;27.97;;;;;;;-141.02;77.31;43865.09;5074298;28;20229;-63
2023/10/17 00:06:32;;;;;;;30.17;28.77;;;;;;;-141.02;77.80;43861.25;5074295;28;20286;-61
2023/10/17 00:09:00;;;;;;;31.17;29.77;;;;;;;-141.02;77.61;43842.03;5074246;28;20743;-66
2023/10/17 00:11:32;;;;;;;28.47;27.17;;;;;;;-141.02;77.65;43845.88;5074231;28;20237;-62
2023/10/17 00:14:07;;;;;;;30.43;29.03;;;;;;;-141.02;78.28;43830.50;5074666;28;20226;-63
2023/10/17 00:16:37;;;;;;;29.13;27.83;;;;;;;-141.02;77.88;43842.03;5074207;28;20187;-66
2023/10/17 00:19:09;;;;;;;28.47;27.17;;;;;;;-141.02;79.26;43826.66;5074057;28;20256;-67
2023/10/17 00:21:36;;;;;;;30.10;28.70;;;;;;;-141.02;78.65;43834.34;5074291;28;20260;-62
2023/10/17 00:24:08;;;;;;;29.17;27.87;;;;;;;-141.02;79.45;43838.19;5074272;28;20206;-63
2023/10/17 00:26:37;;;;;;;23.57;22.57;;;;;;;-141.02;79.75;43790.19;5074020;28;20193;-62
2023/10/17 00:29:07;;;;;;;27.43;26.23;;;;;;;-141.02;80.47;43815.16;5073833;28;20577;-63
2023/10/17 00:31:35;;;;;;;29.03;27.73;;;;;;;-141.02;81.06;43782.50;5073838;28;20245;-66
2023/10/17 00:34:12;;;;;;;29.87;28.50;;;;;;;-141.02;81.52;43805.56;5073995;28;20329;-65
2023/10/17 00:36:47;;;;;;;31.10;29.67;;;;;;;-141.02;81.51;43807.47;5073586;28;20281;-64
2023/10/17 00:39:22;;;;;;;29.93;28.53;;;;;;;-141.02;83.12;43799.78;5073066;28;20190;-67
2023/10/17 00:42:09;;;;;;;28.83;27.53;;;;;;;-141.02;83.97;43749.88;5073957;28;20190;-62
2023/10/17 00:44:37;;;;;;;28.83;27.53;;;;;;;-141.02;84.15;43650.00;5074006;28;20225;-66
2023/10/17 00:47:08;;;;;;;28.80;27.50;;;;;;;-141.02;84.66;43707.63;5073968;28;20195;-61
2023/10/17 00:49:40;;;;;;;28.23;26.97;;;;;;;-141.02;84.01;43734.50;5073815;28;20194;-67
2023/10/17 00:52:16;;;;;;;27.77;26.57;;;;;;;-141.02;81.21;43845.88;5073428;28;20234;-67
2023/10/17 00:54:43;;;;;;;26.57;25.37;;;;;;;-141.02;88.84;43663.44;5073317;28;20218;-67
2023/10/17 00:57:14;;;;;;;27.53;26.33;;;;;;;-141.02;88.25;43626.97;5073491;28;20202;-65
2023/10/17 00:59:44;;;;;;;27.20;26.00;;;;;;;-141.02;86.88;43584.72;5073274;28;20568;-66
2023/10/17 01:02:15;;;;;;;29.43;28.13;;;;;;;-141.02;86.40;43603.94;5073185;28;20661;-66
2023/10/17 01:04:44;;;;;;;33.23;31.63;;;;;;;-141.02;86.59;43605.84;5073179;28;20187;-67
2023/10/17 01:07:23;;;;;;;29.43;28.13;;;;;;;-141.02;86.96;43584.72;5073294;28;20222;-66
2023/10/17 01:09:55;;;;;;;26.50;25.40;;;;;;;-141.02;87.36;43565.53;5073567;28;20240;-66
2023/10/17 01:12:27;;;;;;;25.70;24.60;;;;;;;-141.02;87.81;43475.28;5073313;28;20194;-65
2023/10/17 01:15:38;;;;;;;25.40;24.30;;;;;;;-141.02;87.55;43573.19;5073216;28;20317;-67
2023/10/17 01:18:05;;;;;;;25.37;24.27;;;;;;;-141.02;87.32;43557.84;5073250;28;20198;-67
2023/10/17 01:20:38;;;;;;;27.30;26.10;;;;;;;-141.02;87.68;43555.91;5073162;28;20550;-67
2023/10/17 01:23:24;;;;;;;27.73;26.53;;;;;;;-141.02;87.69;43530.97;5072769;28;20191;-64
2023/10/17 01:25:53;;;;;;;27.17;25.97;;;;;;;-141.02;88.09;43563.59;5072682;28;20644;-65
2023/10/17 01:28:53;;;;;;;26.73;25.53;;;;;;;-141.02;88.79;43565.53;5073120;28;20228;-66
2023/10/17 01:31:23;;;;;;;27.30;26.10;;;;;;;-141.02;89.70;43511.75;5072721;28;20190;-66
2023/10/17 01:33:52;;;;;;;26.03;24.93;;;;;;;-141.02;89.56;43511.75;5072799;28;20230;-67
2023/10/17 01:36:19;;;;;;;26.47;25.33;;;;;;;-141.02;89.73;43500.25;5072558;28;20194;-66
2023/10/17 01:38:49;;;;;;;26.90;25.70;;;;;;;-141.02;89.96;43494.47;5072835;28;20289;-66
2023/10/17 01:48:54;;;;;;;24.77;23.67;;;;;;;-141.02;92.01;43381.19;5072961;28;20278;-65
2023/10/17 02:01:29;;;;;;;25.47;24.37;;;;;;;-141.02;94.11;43262.16;5072333;28;20270;-66
2023/10/17 02:04:47;;;;;;;26.67;25.50;;;;;;;-141.02;94.62;43227.59;5072534;28;20198;-67
2023/10/17 02:07:14;;;;;;;25.83;24.73;;;;;;;-141.02;94.78;43158.47;5072012;28;20192;-66
2023/10/17 02:09:48;;;;;;;27.47;26.27;;;;;;;-141.02;95.51;43158.47;5072231;28;20633;-67
2023/10/17 02:12:16;;;;;;;25.70;24.60;;;;;;;-141.02;96.05;43112.41;5072399;28;20186;-66
2023/10/17 02:14:43;;;;;;;27.07;25.87;;;;;;;-141.02;96.42;43066.31;5072057;28;20222;-67
2023/10/17 02:17:15;;;;;;;26.63;25.53;;;;;;;-141.02;97.10;43027.91;5072362;28;20199;-66
2023/10/17 02:19:42;;;;;;;27.20;26.00;;;;;;;-141.02;97.30;43014.47;5071991;28;20191;-66
2023/10/17 02:22:11;;;;;;;26.90;25.70;;;;;;;-141.02;98.14;42966.47;5072004;28;20263;-67
2023/10/17 02:24:38;;;;;;;26.63;25.43;;;;;;;-141.02;98.04;42928.09;5071926;28;20252;-66
2023/10/17 02:27:13;;;;;;;26.00;24.90;;;;;;;-141.02;98.49;42903.13;5072291;28;20212;-64
2023/10/17 02:29:41;;;;;;;26.27;25.17;;;;;;;-141.02;99.38;42870.50;5071934;28;20276;-67
2023/10/17 02:32:43;;;;;;;26.23;25.13;;;;;;;-141.02;99.71;42822.50;5071913;28;20621;-60
2023/10/17 02:38:32;;;;;;;24.30;23.30;;;;;;;-141.02;100.00;42764.91;5071993;28;20244;-63
2023/10/17 02:48:23;;;;;;;24.97;23.97;;;;;;;-141.02;100.00;42607.50;5072167;28;20221;-64
2023/10/17 03:04:51;;;;;;;22.67;21.77;;;;;;;-141.02;100.00;42338.75;5075472;28;20194;-64
2023/10/17 03:07:17;;;;;;;25.27;24.27;;;;;;;-141.02;100.00;42334.91;5075404;28;20190;-62
2023/10/17 03:09:44;;;;;;;21.23;20.43;;;;;;;-141.02;100.00;42304.22;5075611;28;20281;-63
2023/10/17 03:12:19;;;;;;;20.63;19.83;;;;;;;-141.02;100.00;42248.53;5075667;28;20209;-66
2023/10/17 03:17:31;;;;;;;20.97;20.17;;;;;;;-141.02;100.00;42187.13;5075407;28;20737;-65
2023/10/17 03:19:58;;;;;;;20.67;19.87;;;;;;;-141.02;100.00;42119.94;5075426;28;20200;-63
2023/10/17 03:22:27;;;;;;;17.47;16.87;;;;;;;-141.02;100.00;42064.28;5075323;28;20198;-66
2023/10/17 03:25:02;;;;;;;20.43;19.63;;;;;;;-141.02;100.00;42071.97;5075034;28;20293;-65
2023/10/17 03:27:36;;;;;;;18.17;17.57;;;;;;;-141.02;100.00;42020.16;5075401;28;20183;-60
2023/10/17 03:30:06;;;;;;;16.97;16.37;;;;;;;-141.02;100.00;41999.03;5075031;28;20193;-66
2023/10/17 03:32:34;;;;;;;19.13;18.43;;;;;;;-141.02;100.00;41976.00;5075273;28;20550;-60
2023/10/17 03:35:07;;;;;;;19.20;18.50;;;;;;;-141.02;100.00;41947.22;5075056;28;20222;-66
2023/10/17 03:37:38;;;;;;;19.03;18.33;;;;;;;-141.02;100.00;41872.38;5074883;28;20545;-67
2023/10/17 03:40:16;;;;;;;20.17;19.47;;;;;;;-141.02;100.00;41883.88;5074852;28;20195;-67
2023/10/17 03:42:46;;;;;;;19.77;19.07;;;;;;;-141.02;100.00;41853.16;5075883;28;20193;-67
2023/10/17 03:45:22;;;;;;;20.77;20.00;;;;;;;-141.02;100.00;41828.22;5074795;28;20619;-66
2023/10/17 03:47:57;;;;;;;20.00;19.30;;;;;;;-141.02;100.00;41812.88;5074653;28;20188;-66
2023/10/17 03:50:41;;;;;;;24.17;23.23;;;;;;;-141.02;100.00;41776.41;5074941;28;20195;-65
2023/10/17 03:53:15;;;;;;;26.23;25.13;;;;;;;-141.02;100.00;41780.25;5074398;28;20218;-63
2023/10/17 03:55:43;;;;;;;25.40;24.40;;;;;;;-141.02;100.00;41776.41;5074488;28;20226;-67
2023/10/17 03:58:19;;;;;;;27.40;26.20;;;;;;;-141.02;100.00;41753.38;5074672;28;20202;-66
2023/10/17 04:00:46;;;;;;;28.83;27.63;;;;;;;-141.02;100.00;41764.88;5074509;28;20190;-67
2023/10/17 04:03:21;;;;;;;28.30;27.10;;;;;;;-141.02;100.00;41780.25;5074704;28;20190;-66
2023/10/17 04:05:52;;;;;;;24.83;23.83;;;;;;;-141.02;100.00;41732.25;5074759;28;20190;-63
2023/10/17 04:08:26;;;;;;;24.87;23.87;;;;;;;-141.02;100.00;41764.88;5076865;28;20230;-66
2023/10/17 04:11:08;;;;;;;25.73;24.63;;;;;;;-141.02;100.00;41749.53;5094564;28;20186;-66
2023/10/17 04:13:40;;;;;;;27.00;25.90;;;;;;;-141.02;100.00;41807.09;5094580;28;20280;-64
2023/10/17 04:16:10;;;;;;;29.23;27.93;;;;;;;-141.02;100.00;41814.78;5094255;28;20225;-66
2023/10/17 04:18:48;;;;;;;31.93;30.43;;;;;;;-141.02;100.00;41764.88;5095193;28;20202;-66
2023/10/17 04:21:26;;;;;;;32.33;30.83;;;;;;;-141.02;100.00;41764.88;5094669;28;20190;-67
2023/10/17 04:23:55;;;;;;;30.23;28.90;;;;;;;-141.02;100.00;41791.75;5094564;28;20685;-65
2023/10/17 04:26:27;;;;;;;29.53;28.23;;;;;;;-141.02;100.00;41780.25;5094509;28;20624;-66
2023/10/17 04:28:55;;;;;;;24.10;23.10;;;;;;;-141.02;100.00;41843.56;5094194;28;20190;-66
2023/10/17 04:31:26;;;;;;;31.27;29.87;;;;;;;-141.02;100.00;41910.75;5094379;28;20250;-65
2023/10/17 04:34:05;;;;;;;32.07;30.57;;;;;;;-141.02;100.00;41914.59;5093934;28;20644;-67
2023/10/17 04:36:37;;;;;;;34.00;32.20;;;;;;;-141.02;100.00;41926.09;5093991;28;20731;-62
2023/10/17 04:39:18;;;;;;;38.27;36.37;;;;;;;-141.02;100.00;41964.47;5094286;28;20182;-66
2023/10/17 04:44:32;;;;;;;31.20;29.80;;;;;;;-141.02;100.00;42071.97;5091316;28;20197;-67
2023/10/17 04:47:16;;;;;;;30.27;28.87;;;;;;;-141.02;100.00;42100.75;5094129;28;20186;-63
2023/10/17 04:49:44;;;;;;;28.07;26.87;;;;;;;-141.02;100.00;42187.13;5094071;28;20190;-66
2023/10/17 04:52:19;;;;;;;27.13;25.93;;;;;;;-141.02;100.00;42206.31;5093925;28;20202;-64
2023/10/17 04:54:47;;;;;;;30.67;29.27;;;;;;;-141.02;100.00;42242.78;5093616;28;20678;-66
2023/10/17 04:57:15;;;;;;;31.40;30.00;;;;;;;-141.02;100.00;42250.47;5093498;28;20208;-67
2023/10/17 04:59:51;;;;;;;31.17;29.77;;;;;;;-141.02;100.00;42306.13;5093515;28;20680;-64
2023/10/17 05:02:39;;;;;;;29.60;28.30;;;;;;;-141.02;100.00;42304.22;5093453;28;20185;-66
2023/10/17 05:08:18;;;;;;;23.20;22.20;;;;;;;-141.02;100.00;42336.84;5093147;28;20227;-66
2023/10/17 06:17:21;;;;;;;27.67;26.37;;;;;;;-141.02;97.46;42597.91;5150905;27;20187;-66
2023/10/17 06:19:49;;;;;;;29.45;28.08;;;;;;;-141.02;96.87;42595.97;5150703;27;20183;-67
2023/10/17 06:30:45;;;;;;;30.98;29.48;;;;;;;-141.02;96.03;42643.97;5150257;27;20230;-65
2023/10/17 06:33:19;;;;;;;29.37;27.97;;;;;;;-141.02;95.49;42638.22;5150440;27;20210;-67
2023/10/17 06:35:47;;;;;;;31.70;30.10;;;;;;;-141.02;95.03;42630.53;5150766;27;20184;-65
2023/10/17 06:38:16;;;;;;;31.27;29.77;;;;;;;-141.02;94.67;42624.78;5150623;27;20275;-67
2023/10/17 06:40:52;;;;;;;29.98;28.58;;;;;;;-141.02;94.85;42651.66;5150584;27;20196;-67
2023/10/17 06:43:27;;;;;;;31.48;29.95;;;;;;;-141.02;94.92;42628.63;5150634;27;20188;-62
2023/10/17 06:46:05;;;;;;;29.13;27.73;;;;;;;-141.02;94.79;42640.13;5150214;27;20202;-67
2023/10/17 06:48:36;;;;;;;31.48;29.92;;;;;;;-141.02;94.26;42649.72;5150150;27;20620;-65
2023/10/17 06:53:55;;;;;;;31.80;30.30;;;;;;;-141.02;93.01;42684.28;5150050;27;20234;-66
2023/10/17 06:56:25;;;;;;;29.25;27.85;;;;;;;-141.02;92.49;42686.19;5149985;27;20194;-67
2023/10/17 06:59:03;;;;;;;31.17;29.67;;;;;;;-141.02;91.68;42686.19;5149924;27;20296;-67
2023/10/17 07:01:33;;;;;;;32.85;31.25;;;;;;;-141.02;91.73;42705.41;5150265;27;20601;-67
2023/10/17 07:04:01;;;;;;;29.13;27.73;;;;;;;-141.02;91.01;42713.06;5149871;27;20188;-67
2023/10/17 07:06:29;;;;;;;32.75;31.15;;;;;;;-141.02;91.39;42759.16;5139720;27;20654;-67
2023/10/17 07:08:57;;;;;;;29.10;27.73;;;;;;;-141.02;89.40;42716.91;5136175;27;20199;-67
2023/10/17 07:11:30;;;;;;;26.83;25.63;;;;;;;-141.02;88.73;42736.13;5135853;27;20753;-68
2023/10/17 07:14:22;;;;;;;31.73;30.23;;;;;;;-141.02;88.20;42778.34;5136128;27;20269;-67
2023/10/17 07:16:57;;;;;;;32.05;30.52;;;;;;;-141.02;87.67;42774.50;5135932;27;20188;-67
2023/10/17 07:22:11;;;;;;;32.65;31.05;;;;;;;-141.02;86.73;42770.66;5136271;27;20176;-67
2023/10/17 07:24:42;;;;;;;27.40;26.13;;;;;;;-141.02;86.36;42755.31;5135994;27;20299;-67
2023/10/17 07:27:18;;;;;;;27.42;26.15;;;;;;;-141.02;85.96;42786.03;5135622;27;20585;-68
2023/10/17 07:29:58;;;;;;;29.75;28.35;;;;;;;-141.02;87.01;42782.19;5136053;27;20245;-65
2023/10/17 07:32:32;;;;;;;31.90;30.40;;;;;;;-141.02;86.72;42793.69;5135806;27;20230;-65
2023/10/17 07:35:04;;;;;;;29.38;27.98;;;;;;;-141.02;87.45;42795.63;5135489;27;20268;-67
2023/10/17 07:37:47;;;;;;;29.90;28.50;;;;;;;-141.02;87.98;42809.06;5135358;27;20189;-67
2023/10/17 07:40:23;;;;;;;29.95;28.55;;;;;;;-141.02;86.66;42830.19;5135632;27;20191;-67
2023/10/17 07:42:52;;;;;;;26.77;25.58;;;;;;;-141.02;86.63;42820.56;5135357;27;20227;-67
2023/10/17 07:45:21;;;;;;;28.63;27.33;;;;;;;-141.02;87.00;42820.56;5135264;27;20586;-65
2023/10/17 07:47:54;;;;;;;29.27;27.88;;;;;;;-141.02;86.66;42805.22;5135224;27;20188;-64
2023/10/17 07:50:25;;;;;;;29.85;28.42;;;;;;;-141.02;85.98;42822.50;5135580;27;20185;-67
2023/10/17 07:52:59;;;;;;;29.10;27.70;;;;;;;-141.02;85.82;42795.63;5135165;27;20283;-67
2023/10/17 07:55:36;;;;;;;28.65;27.25;;;;;;;-141.02;84.78;42812.91;5135424;27;20302;-68
2023/10/17 07:58:09;;;;;;;28.52;27.13;;;;;;;-141.02;85.42;42828.25;5135046;27;20249;-65
2023/10/17 08:00:37;;;;;;;28.00;26.70;;;;;;;-141.02;86.06;42810.97;5135283;27;20188;-65
2023/10/17 08:03:09;;;;;;;29.30;27.92;;;;;;;-141.02;85.30;42824.41;5134858;27;20739;-68
2023/10/17 08:05:44;;;;;;;30.88;29.38;;;;;;;-141.02;85.38;42824.41;5134868;27;20232;-65
2023/10/17 08:08:14;;;;;;;29.15;27.75;;;;;;;-141.02;85.52;42820.56;5135216;27;20192;-66
2023/10/17 08:10:45;;;;;;;29.15;27.75;;;;;;;-141.02;85.11;42843.63;5135322;27;20204;-66
2023/10/17 08:13:13;;;;;;;29.67;28.17;;;;;;;-141.02;85.38;42839.78;5134826;27;20220;-65
2023/10/17 08:15:46;;;;;;;29.77;28.27;;;;;;;-141.02;84.95;42853.22;5134649;27;20709;-66
2023/10/17 08:18:15;;;;;;;24.10;23.00;;;;;;;-141.02;84.48;42851.28;5133593;27;20200;-67
2023/10/17 08:21:32;;;;;;;25.13;24.02;;;;;;;-141.02;83.47;42851.28;5134914;27;20200;-67
2023/10/17 08:23:41;;;;;;;29.08;27.67;;;;;;;-141.02;83.09;42862.81;5134473;27;20201;-66
2023/10/17 08:26:12;;;;;;;29.27;27.88;;;;;;;-141.02;83.52;42853.22;5134441;27;20200;-65
2023/10/17 08:28:46;;;;;;;28.20;26.88;;;;;;;-141.02;83.48;42858.97;5134985;27;20217;-66
2023/10/17 08:31:22;;;;;;;26.70;25.50;;;;;;;-141.02;83.12;42835.94;5134690;27;20180;-65
2023/10/17 08:33:56;;;;;;;32.72;31.13;;;;;;;-141.02;81.95;42858.97;5134307;27;20195;-65
2023/10/17 08:36:28;;;;;;;29.23;27.83;;;;;;;-141.02;82.54;42897.38;5134196;27;20184;-62
2023/10/17 08:38:55;;;;;;;29.00;27.60;;;;;;;-141.02;81.69;42870.50;5134479;27;20249;-65
2023/10/17 08:41:26;;;;;;;29.05;27.65;;;;;;;-141.02;82.06;42878.16;5134467;27;20196;-66
2023/10/17 08:43:55;;;;;;;30.70;29.20;;;;;;;-141.02;82.22;42878.16;5134081;27;20682;-67
2023/10/17 08:46:23;;;;;;;32.00;30.40;;;;;;;-141.02;81.54;42878.16;5134035;27;20320;-67
2023/10/17 08:48:56;;;;;;;29.73;28.30;;;;;;;-141.02;81.63;42880.09;5134003;27;20224;-65
2023/10/17 08:51:24;;;;;;;29.88;28.38;;;;;;;-141.02;81.25;42885.84;5133956;27;20721;-65
2023/10/17 08:53:54;;;;;;;29.15;27.75;;;;;;;-141.02;80.31;42899.28;5133807;27;20196;-67
2023/10/17 08:56:21;;;;;;;29.52;28.13;;;;;;;-141.02;79.69;42895.44;5133743;27;20319;-66
2023/10/17 08:59:03;;;;;;;31.17;29.67;;;;;;;-141.02;79.36;42926.16;5134057;27;20198;-67
2023/10/17 09:01:30;;;;;;;28.75;27.45;;;;;;;-141.02;78.98;42912.72;5134062;27;20262;-63
2023/10/17 09:04:03;;;;;;;32.78;31.17;;;;;;;-141.02;78.99;42916.56;5133740;27;20650;-65
2023/10/17 09:06:32;;;;;;;31.95;30.45;;;;;;;-141.02;78.86;42924.25;5134084;27;20606;-65
2023/10/17 09:12:01;;;;;;;31.50;30.00;;;;;;;-141.02;78.10;42947.28;5133496;27;20192;-66
2023/10/17 09:14:35;;;;;;;30.27;28.77;;;;;;;-141.02;77.58;42947.28;5133607;27;20291;-68
2023/10/17 09:17:10;;;;;;;28.80;27.40;;;;;;;-141.02;77.66;42989.53;5133795;27;20593;-64
2023/10/17 09:19:46;;;;;;;28.45;27.05;;;;;;;-141.02;77.12;42993.34;5133840;27;20188;-68
2023/10/17 09:22:17;;;;;;;31.52;29.83;;;;;;;-141.02;76.77;42993.34;5133398;27;20192;-67
2023/10/17 09:24:48;;;;;;;31.17;29.67;;;;;;;-141.02;76.69;42976.09;5133759;27;20253;-67
2023/10/17 09:27:15;;;;;;;25.10;24.00;;;;;;;-141.02;75.96;42960.72;5133686;27;20189;-67
2023/10/17 09:29:46;;;;;;;25.15;24.00;;;;;;;-141.02;74.80;42974.16;5133380;27;20196;-67
2023/10/17 09:32:13;;;;;;;32.22;30.63;;;;;;;-141.02;75.17;42989.53;5133244;27;20279;-67
2023/10/17 09:34:42;;;;;;;32.80;31.13;;;;;;;-141.02;74.73;43001.03;5133520;27;20223;-67
2023/10/17 09:37:13;;;;;;;39.50;37.50;;;;;;;-141.02;74.04;43012.56;5133157;27;20677;-67
2023/10/17 09:39:46;;;;;;;39.85;37.85;;;;;;;-141.02;72.92;43033.69;5133243;27;20590;-67
2023/10/17 09:42:14;;;;;;;17.00;16.20;;;;;;;-141.02;72.44;43024.06;5133494;27;20188;-68
2023/10/17 09:44:42;;;;;;;17.50;16.60;;;;;;;-141.02;72.14;43081.66;5133126;27;20196;-68
2023/10/17 09:47:11;;;;;;;17.20;16.40;;;;;;;-141.02;72.80;43097.03;5133066;27;20192;-67
2023/10/17 09:49:45;;;;;;;36.33;34.42;;;;;;;-141.02;72.21;43070.16;5133334;27;20273;-68
2023/10/17 09:52:14;;;;;;;37.80;35.80;;;;;;;-141.02;72.11;43108.56;5133049;27;20192;-67
2023/10/17 09:54:43;;;;;;;37.10;35.13;;;;;;;-141.02;71.69;43127.75;5133250;28;20281;-67
2023/10/17 09:57:15;;;;;;;38.15;36.15;;;;;;;-141.02;72.09;43108.56;5133013;28;20657;-67
2023/10/17 09:59:54;;;;;;;38.35;36.30;;;;;;;-141.02;72.02;43127.75;5133297;28;20188;-68
2023/10/17 10:02:23;;;;;;;16.88;16.10;;;;;;;-141.02;71.21;43133.50;5133017;28;20185;-68
2023/10/17 10:04:50;;;;;;;17.25;16.45;;;;;;;-141.02;71.14;43148.88;5132758;28;20235;-68
2023/10/17 10:07:23;;;;;;;26.90;25.60;;;;;;;-141.02;70.83;43158.47;5132632;28;20192;-69
2023/10/17 10:09:50;;;;;;;30.35;28.85;;;;;;;-141.02;70.71;43143.09;5133407;27;20279;-67
2023/10/17 10:12:17;;;;;;;30.08;28.60;;;;;;;-141.02;70.46;43152.72;5133194;28;20197;-68
2023/10/17 10:14:45;;;;;;;29.52;28.13;;;;;;;-141.02;70.51;43158.47;5133051;28;20224;-66
2023/10/17 10:17:14;;;;;;;30.65;29.15;;;;;;;-141.02;70.12;43175.75;5132682;28;20729;-68
2023/10/17 10:20:02;;;;;;;30.08;28.67;;;;;;;-141.02;70.50;43154.63;5132807;28;20312;-67
2023/10/17 10:22:51;;;;;;;29.90;28.40;;;;;;;-141.02;70.38;43175.75;5132699;28;20192;-68
2023/10/17 10:25:20;;;;;;;28.75;27.45;;;;;;;-141.02;70.52;43185.34;5127004;27;20192;-66
2023/10/17 10:27:49;;;;;;;16.45;15.75;;;;;;;-141.02;70.09;43177.66;5133014;28;20193;-65
2023/10/17 10:30:33;;;;;;;16.33;15.63;;;;;;;-141.02;70.17;43187.28;5133046;28;20196;-68
2023/10/17 10:33:00;;;;;;;16.30;15.60;;;;;;;-141.02;70.48;43173.81;5132959;27;20607;-67
2023/10/17 10:35:32;;;;;;;25.70;24.50;;;;;;;-141.02;70.28;43202.63;5132806;27;20371;-68
2023/10/17 10:37:59;;;;;;;27.70;26.40;;;;;;;-141.02;70.05;43214.16;5132927;28;20185;-68
2023/10/17 10:40:30;;;;;;;37.20;35.30;;;;;;;-141.02;69.70;43216.06;5132836;27;20200;-67
2023/10/17 10:42:59;;;;;;;39.78;37.67;;;;;;;-141.02;69.42;43223.75;5136440;27;20543;-68
2023/10/17 10:45:35;;;;;;;40.10;38.00;;;;;;;-141.02;69.14;43239.09;5136281;27;20572;-67
2023/10/17 10:48:04;;;;;;;16.75;15.95;;;;;;;-141.02;69.29;43266.00;5136385;27;20673;-68
2023/10/17 10:50:35;;;;;;;16.60;15.90;;;;;;;-141.02;69.23;43239.09;5136289;27;20256;-68
2023/10/17 10:53:03;;;;;;;16.50;15.77;;;;;;;-141.02;69.14;43242.94;5136313;27;20228;-69
2023/10/17 10:55:31;;;;;;;36.13;34.22;;;;;;;-141.02;68.96;43244.88;5136433;27;20224;-68
2023/10/17 10:58:03;;;;;;;38.70;36.70;;;;;;;-141.02;69.08;43227.59;5136139;27;20196;-66
2023/10/17 11:00:31;;;;;;;38.03;36.05;;;;;;;-141.02;68.79;43235.28;5136226;27;20249;-67
2023/10/17 11:02:59;;;;;;;40.47;38.33;;;;;;;-141.02;68.60;43231.44;5136044;27;20192;-68
2023/10/17 11:05:26;;;;;;;37.63;35.72;;;;;;;-141.02;69.30;43241.03;5135825;27;20266;-68
2023/10/17 11:08:02;;;;;;;16.42;15.73;;;;;;;-141.02;69.12;43231.44;5135941;27;20203;-68
2023/10/17 11:10:29;;;;;;;15.77;15.18;;;;;;;-141.02;68.45;43254.47;5136328;27;20196;-67
2023/10/17 11:12:56;;;;;;;29.90;28.50;;;;;;;-141.02;69.22;43277.50;5135824;27;20196;-66
2023/10/17 11:15:27;;;;;;;34.30;32.60;;;;;;;-141.02;69.12;43266.00;5135732;27;20271;-67
2023/10/17 11:18:05;;;;;;;34.30;32.60;;;;;;;-141.02;68.28;43290.94;5136080;27;20191;-66
2023/10/17 11:20:33;;;;;;;33.55;31.95;;;;;;;-141.02;68.42;43267.91;5136078;27;20180;-68
2023/10/17 11:23:04;;;;;;;34.33;32.63;;;;;;;-141.02;68.59;43314.00;5135948;27;20265;-67
2023/10/17 11:25:34;;;;;;;15.60;15.00;;;;;;;-141.02;68.07;43296.72;5136060;27;20202;-69
2023/10/17 11:28:06;;;;;;;16.25;15.55;;;;;;;-141.02;67.51;43300.56;5135570;27;20250;-69
2023/10/17 11:30:39;;;;;;;15.98;15.27;;;;;;;-141.02;66.98;43327.44;5135303;27;20177;-68
2023/10/17 11:33:10;;;;;;;31.00;29.50;;;;;;;-141.02;67.23;43335.09;5135785;27;20250;-69
2023/10/17 11:35:38;;;;;;;32.85;31.25;;;;;;;-141.02;67.16;43296.72;5135417;27;20220;-68
2023/10/17 11:38:25;;;;;;;36.40;34.60;;;;;;;-141.02;67.38;43325.50;5135743;27;20247;-68
2023/10/17 11:40:54;;;;;;;36.00;34.30;;;;;;;-141.02;67.22;43296.72;5135706;27;20188;-58
2023/10/17 11:43:28;;;;;;;39.28;37.38;;;;;;;-141.02;67.25;43315.91;5135288;27;20665;-58
2023/10/17 11:45:56;;;;;;;36.05;34.35;;;;;;;-141.02;67.42;43340.88;5135537;27;20184;-65
2023/10/17 11:48:26;;;;;;;16.17;15.48;;;;;;;-141.02;67.24;43327.44;5135135;27;20196;-63
2023/10/17 11:51:05;;;;;;;16.08;15.38;;;;;;;-141.02;67.22;43338.94;5135083;27;20200;-65
2023/10/17 11:53:33;;;;;;;15.73;15.10;;;;;;;-141.02;67.83;43312.06;5135301;27;20184;-63
2023/10/17 11:56:01;;;;;;;28.10;26.80;;;;;;;-141.02;68.17;43321.66;5135287;27;20227;-68
2023/10/17 11:58:30;;;;;;;32.30;30.80;;;;;;;-141.02;68.30;43319.75;5135363;27;20274;-65
2023/10/17 12:00:57;;;;;;;32.67;31.08;;;;;;;-141.02;68.41;43354.31;5135242;27;20200;-63
2023/10/17 12:03:26;;;;;;;37.92;36.00;;;;;;;-141.02;68.30;43340.88;5135177;27;20246;-64
2023/10/17 12:05:54;;;;;;;35.97;34.17;;;;;;;-141.02;68.47;43340.88;5134595;27;20724;-67
2023/10/17 12:08:29;;;;;;;36.30;34.50;;;;;;;-141.02;68.35;43346.63;5135104;27;20215;-64
2023/10/17 12:10:57;;;;;;;16.23;15.52;;;;;;;-141.02;68.47;43365.81;5134782;27;20191;-67
2023/10/17 12:13:26;;;;;;;16.17;15.48;;;;;;;-141.02;68.49;43381.19;5134782;27;20196;-67
2023/10/17 12:15:56;;;;;;;17.02;16.25;;;;;;;-141.02;68.38;43354.31;5134577;27;20689;-64
2023/10/17 12:18:25;;;;;;;33.85;32.15;;;;;;;-141.02;68.97;43348.56;5135041;27;20219;-65
2023/10/17 12:20:55;;;;;;;36.50;34.70;;;;;;;-141.02;69.14;43342.78;5134527;27;20195;-64
2023/10/17 12:23:29;;;;;;;36.40;34.50;;;;;;;-141.02;68.97;43348.56;5134466;27;20189;-64
2023/10/17 12:26:01;;;;;;;31.52;30.02;;;;;;;-141.02;68.58;43350.47;5134715;27;20196;-67
2023/10/17 12:28:28;;;;;;;33.88;32.20;;;;;;;-141.02;69.09;43335.09;5134523;27;20216;-68
2023/10/17 12:30:55;;;;;;;15.63;14.93;;;;;;;-141.02;69.23;43344.72;5134649;27;20283;-66
2023/10/17 12:33:24;;;;;;;16.02;15.32;;;;;;;-141.02;69.12;43325.50;5134594;27;20271;-68
2023/10/17 12:35:52;;;;;;;15.75;15.05;;;;;;;-141.02;70.05;43308.22;5134166;27;20227;-69
2023/10/17 12:38:25;;;;;;;34.03;32.33;;;;;;;-141.02;69.84;43331.28;5135132;27;20280;-69
2023/10/17 12:40:53;;;;;;;32.25;30.67;;;;;;;-141.02;70.14;43342.78;5134159;27;20189;-66
2023/10/17 12:43:22;;;;;;;33.40;31.73;;;;;;;-141.02;69.41;43348.56;5134373;27;20192;-66
2023/10/17 12:45:49;;;;;;;34.50;32.80;;;;;;;-141.02;69.67;43312.06;5134414;27;20196;-68
2023/10/17 12:48:16;;;;;;;37.92;36.03;;;;;;;-141.02;69.39;43327.44;5134414;27;20199;-68
2023/10/17 12:50:44;;;;;;;15.85;15.15;;;;;;;-141.02;69.90;43358.16;5133942;27;20661;-67
2023/10/17 12:53:12;;;;;;;15.88;15.18;;;;;;;-141.02;70.24;43338.94;5133890;27;20283;-68
2023/10/17 12:55:39;;;;;;;16.00;15.30;;;;;;;-141.02;69.75;43312.06;5133761;27;20231;-67
2023/10/17 12:58:07;;;;;;;34.75;33.05;;;;;;;-141.02;70.32;43310.16;5134111;27;20243;-68
2023/10/17 13:00:36;;;;;;;36.42;34.55;;;;;;;-141.02;70.43;43292.88;5133745;27;20283;-67
2023/10/17 13:03:03;;;;;;;34.97;33.28;;;;;;;-141.02;70.54;43302.47;5133391;27;20197;-67
2023/10/17 13:05:29;;;;;;;31.05;29.55;;;;;;;-141.02;70.85;43319.75;5133351;27;20228;-67
2023/10/17 13:07:56;;;;;;;32.47;30.88;;;;;;;-141.02;70.55;43312.06;5133633;27;20692;-68
2023/10/17 13:10:23;;;;;;;29.60;28.20;;;;;;;-141.02;70.51;43287.09;5133531;27;20197;-68
2023/10/17 13:12:51;;;;;;;16.30;15.60;;;;;;;-141.02;70.73;43319.75;5133772;27;20192;-67
2023/10/17 13:15:18;;;;;;;15.85;14.95;;;;;;;-141.02;70.51;43312.06;5133524;27;20192;-68
2023/10/17 13:17:51;;;;;;;16.85;16.05;;;;;;;-141.02;70.77;43312.06;5133718;27;20234;-68
2023/10/17 13:20:26;;;;;;;35.55;33.75;;;;;;;-141.02;70.86;43325.50;5133483;27;20198;-69
2023/10/17 13:22:53;;;;;;;34.67;32.88;;;;;;;-141.02;71.06;43323.59;5133754;27;20188;-68
2023/10/17 13:25:20;;;;;;;34.90;33.10;;;;;;;-141.02;70.89;43315.91;5133410;27;20189;-67
2023/10/17 13:27:47;;;;;;;38.35;36.45;;;;;;;-141.02;71.03;43306.31;5133590;27;20234;-66
2023/10/17 13:30:14;;;;;;;33.78;32.08;;;;;;;-141.02;71.03;43315.91;5132939;27;20189;-68
2023/10/17 13:32:41;;;;;;;16.70;15.90;;;;;;;-141.02;71.21;43308.22;5133575;27;20275;-67
2023/10/17 13:35:10;;;;;;;16.40;15.60;;;;;;;-141.02;70.88;43327.44;5133250;27;20638;-67